createdAt,value
2023-04-06T05:02:08.529Z,100229.75
2023-04-06T05:04:47.971Z,100232.38
2023-04-06T05:07:22.085Z,100234.97
2023-04-06T05:09:50.246Z,100237.59
2023-04-06T05:12:17.639Z,100234.09
2023-04-06T05:15:16.594Z,100229.75
2023-04-06T05:17:44.230Z,100239.34
2023-04-06T05:20:16.440Z,100237.63
2023-04-06T05:22:48.444Z,100234.19
2023-04-06T05:25:17.271Z,100236.81
2023-04-06T05:27:46.072Z,100238.59
2023-04-06T05:30:28.717Z,100244.75
2023-04-06T05:32:55.781Z,100247.38
2023-04-06T05:35:26.072Z,100244.78
2023-04-06T05:37:57.047Z,100243.97
2023-04-06T05:40:27.239Z,100237.84
2023-04-06T05:42:54.535Z,100233.53
2023-04-06T05:48:06.915Z,100237.06
2023-04-06T05:50:34.459Z,100240.59
2023-04-06T05:53:01.832Z,100246.75
2023-04-06T05:55:35.709Z,100235.41
2023-04-06T05:58:11.230Z,100242.41
2023-04-06T06:00:38.582Z,100244.19
2023-04-06T06:03:09.647Z,100232.88
2023-04-06T06:05:39.285Z,100235.47
2023-04-06T06:08:13.305Z,100231.13
2023-04-06T06:10:41.614Z,100223.25
2023-04-06T06:13:13.505Z,100228.53
2023-04-06T06:15:40.873Z,100236.38
2023-04-06T06:18:07.716Z,100231.16
2023-04-06T06:20:35.427Z,100232.00
2023-04-06T06:23:04.650Z,100227.63
2023-04-06T06:25:34.038Z,100225.88
2023-04-06T06:28:00.919Z,100221.47
2023-04-06T06:30:31.408Z,100230.19
2023-04-06T06:33:00.465Z,100234.53
2023-04-06T06:35:29.158Z,100227.47
2023-04-06T06:37:56.714Z,100230.03
2023-04-06T06:40:27.478Z,100217.69
2023-04-06T06:42:58.482Z,100223.66
2023-04-06T06:45:35.665Z,100232.25
2023-04-06T06:48:04.705Z,100229.44
2023-04-06T06:50:32.090Z,100228.41
2023-04-06T06:52:58.806Z,100219.44
2023-04-06T06:55:27.949Z,100220.06
2023-04-06T06:57:54.964Z,100220.59
2023-04-06T07:00:24.061Z,100215.91
2023-04-06T07:02:52.354Z,100213.03
2023-04-06T07:05:29.045Z,100220.56
2023-04-06T07:07:58.528Z,100212.16
2023-04-06T07:10:27.328Z,100219.53
2023-04-06T07:12:53.978Z,100218.06
2023-04-06T07:15:21.763Z,100217.47
2023-04-06T07:17:49.051Z,100214.28
2023-04-06T07:20:16.729Z,100201.25
2023-04-06T07:22:44.422Z,100212.19
2023-04-06T07:25:11.656Z,100208.06
2023-04-06T07:27:38.324Z,100213.47
2023-04-06T07:30:06.793Z,100210.13
2023-04-06T07:32:35.679Z,100208.59
2023-04-06T07:35:04.099Z,100200.75
2023-04-06T07:37:30.834Z,100210.81
2023-04-06T07:39:58.207Z,100209.25
2023-04-06T07:42:24.851Z,100201.50
2023-04-06T07:44:52.525Z,100207.22
2023-04-06T07:47:19.413Z,100206.69
2023-04-06T07:49:46.924Z,100201.66
2023-04-06T07:52:13.969Z,100200.13
2023-04-06T07:54:43.422Z,100199.06
2023-04-06T07:57:10.092Z,100189.31
2023-04-06T07:59:37.545Z,100176.78
2023-04-06T08:02:04.253Z,100185.47
2023-04-06T08:04:31.497Z,100185.09
2023-04-06T08:06:58.169Z,100185.91
2023-04-06T08:09:25.647Z,100187.72
2023-04-06T08:11:52.298Z,100183.56
2023-04-06T08:14:19.322Z,100183.69
2023-04-06T08:16:45.920Z,100184.88
2023-04-06T08:19:13.373Z,100184.59
2023-04-06T08:21:41.030Z,100186.44
2023-04-06T08:24:08.566Z,100175.03
2023-04-06T08:26:35.547Z,100181.25
2023-04-06T08:29:03.063Z,100177.06
2023-04-06T08:31:29.741Z,100178.50
2023-04-06T08:33:57.543Z,100182.63
2023-04-06T08:36:24.248Z,100179.53
2023-04-06T08:38:51.652Z,100178.81
2023-04-06T08:41:19.207Z,100179.13
2023-04-06T08:43:49.778Z,100172.75
2023-04-06T08:46:16.754Z,100173.56
2023-04-06T08:48:43.983Z,100172.94
2023-04-06T08:51:12.141Z,100172.97
2023-04-06T08:53:39.570Z,100163.25
2023-04-06T08:56:07.632Z,100164.88
2023-04-06T08:58:38.975Z,100162.63
2023-04-06T09:01:12.920Z,100163.88
2023-04-06T09:03:42.054Z,100162.81
2023-04-06T09:06:10.521Z,100158.78
2023-04-06T09:08:41.202Z,100150.50
2023-04-06T09:11:08.698Z,100152.16
2023-04-06T09:13:49.206Z,100158.53
2023-04-06T09:16:16.576Z,100155.03
2023-04-06T09:18:44.299Z,100151.09
2023-04-06T09:21:11.740Z,100149.97
2023-04-06T09:23:40.226Z,100148.69
2023-04-06T09:26:14.904Z,100146.44
2023-04-06T09:29:02.607Z,100145.34
2023-04-06T09:31:33.973Z,100151.91
2023-04-06T09:34:02.305Z,100142.31
2023-04-06T09:36:33.264Z,100132.81
2023-04-06T09:39:02.809Z,100139.91
2023-04-06T09:41:34.959Z,100139.78
2023-04-06T09:44:12.207Z,100137.75
2023-04-06T09:46:55.115Z,100138.19
2023-04-06T09:49:29.434Z,100130.81
2023-04-06T09:52:02.532Z,100138.59
2023-04-06T09:54:31.956Z,100132.72
2023-04-06T09:57:04.660Z,100133.63
2023-04-06T09:59:38.742Z,100128.75
2023-04-06T10:02:07.507Z,100131.53
2023-04-06T10:04:34.825Z,100130.50
2023-04-06T10:07:03.016Z,100125.44
2023-04-06T10:09:37.279Z,100126.00
2023-04-06T10:12:07.638Z,100126.78
2023-04-06T10:14:38.957Z,100116.50
2023-04-06T10:17:06.268Z,100120.66
2023-04-06T10:19:51.138Z,100117.16
2023-04-06T10:22:25.457Z,100112.72
2023-04-06T10:24:52.636Z,100113.25
2023-04-06T10:27:29.273Z,100122.59
2023-04-06T10:30:03.194Z,100118.63
2023-04-06T10:32:37.304Z,100117.44
2023-04-06T10:35:11.617Z,100118.84
2023-04-06T10:37:53.242Z,100113.69
2023-04-06T10:40:27.384Z,100103.56
2023-04-06T10:42:55.615Z,100111.00
2023-04-06T10:45:25.040Z,100114.72
2023-04-06T10:47:55.857Z,100101.53
2023-04-06T10:50:23.883Z,100104.47
2023-04-06T10:53:01.930Z,100100.63
2023-04-06T10:55:30.469Z,100091.41
2023-04-06T10:57:57.077Z,100097.25
2023-04-06T11:00:26.135Z,100085.19
2023-04-06T11:03:01.153Z,100099.78
2023-04-06T11:05:28.762Z,100092.59
2023-04-06T11:07:55.404Z,100088.72
2023-04-06T11:10:24.059Z,100092.38
2023-04-06T11:12:57.392Z,100086.34
2023-04-06T11:15:24.820Z,100079.38
2023-04-06T11:17:51.588Z,100085.88
2023-04-06T11:20:20.766Z,100081.28
2023-04-06T11:22:53.741Z,100083.03
2023-04-06T11:25:21.249Z,100071.44
2023-04-06T11:27:48.487Z,100071.88
2023-04-06T11:30:16.314Z,100080.03
2023-04-06T11:32:45.231Z,100081.09
2023-04-06T11:35:23.538Z,100079.47
2023-04-06T11:37:53.111Z,100072.19
2023-04-06T11:40:26.049Z,100078.78
2023-04-06T11:42:54.610Z,100068.59
2023-04-06T11:45:21.725Z,100068.56
2023-04-06T11:47:58.405Z,100063.28
2023-04-06T11:50:26.008Z,100072.09
2023-04-06T11:53:06.498Z,100064.09
2023-04-06T11:55:39.828Z,100064.09
2023-04-06T11:58:07.900Z,100057.97
2023-04-06T12:00:36.092Z,100067.66
2023-04-06T12:03:02.708Z,100056.78
2023-04-06T12:05:30.205Z,100051.03
2023-04-06T12:07:59.084Z,100056.94
2023-04-06T12:10:28.421Z,100048.22
2023-04-06T12:12:55.234Z,100048.69
2023-04-06T12:15:22.865Z,100048.38
2023-04-06T12:17:50.772Z,100053.84
2023-04-06T12:20:25.257Z,100053.84
2023-04-06T12:22:53.313Z,100054.16
2023-04-06T12:25:20.875Z,100055.88
2023-04-06T12:27:48.040Z,100041.50
2023-04-06T12:30:16.245Z,100050.66
2023-04-06T12:32:44.132Z,100044.72
2023-04-06T12:35:12.923Z,100047.50
2023-04-06T12:37:39.635Z,100045.47
2023-04-06T12:40:07.689Z,100054.44
2023-04-06T12:42:34.308Z,100049.91
2023-04-06T12:45:01.541Z,100061.19
2023-04-06T12:47:29.334Z,100043.09
2023-04-06T12:49:56.659Z,100040.16
2023-04-06T12:52:23.284Z,100050.97
2023-04-06T12:54:51.462Z,100039.81
2023-04-06T12:57:18.378Z,100046.50
2023-04-06T12:59:46.007Z,100029.97
2023-04-06T13:02:12.979Z,100033.50
2023-04-06T13:04:40.542Z,100027.53
2023-04-06T13:07:07.156Z,100031.19
2023-04-06T13:09:34.431Z,100037.84
2023-04-06T13:12:02.019Z,100039.44
2023-04-06T13:14:29.384Z,100039.50
2023-04-06T13:16:56.416Z,100035.00
2023-04-06T13:19:23.905Z,100031.72
2023-04-06T13:21:50.683Z,100019.97
2023-04-06T13:24:18.107Z,100021.88
2023-04-06T13:26:44.950Z,100027.59
2023-04-06T13:29:11.966Z,100024.28
2023-04-06T13:31:39.849Z,100019.72
2023-04-06T13:34:07.653Z,100024.91
2023-04-06T13:36:34.397Z,100022.84
2023-04-06T13:39:01.605Z,100026.78
2023-04-06T13:41:28.227Z,100023.63
2023-04-06T13:43:55.944Z,100014.63
2023-04-06T13:46:24.877Z,100005.97
2023-04-06T13:48:53.052Z,100013.75
2023-04-06T13:51:19.801Z,100003.72
2023-04-06T13:53:47.244Z,100008.59
2023-04-06T13:56:13.890Z,100004.63
2023-04-06T13:58:41.627Z,100005.06
2023-04-06T14:01:11.447Z,100003.59
2023-04-06T14:03:40.761Z,100007.38
2023-04-06T14:06:27.106Z,100008.75
2023-04-06T14:08:58.408Z,99999.78
2023-04-06T14:11:25.218Z,100001.34
2023-04-06T14:13:52.484Z,100001.84
2023-04-06T14:16:20.652Z,100005.53
2023-04-06T14:18:47.981Z,99999.34
2023-04-06T14:21:14.546Z,100004.06
2023-04-06T14:23:42.174Z,100000.63
2023-04-06T14:26:09.795Z,99998.13
2023-04-06T14:28:37.307Z,99992.94
2023-04-06T14:31:12.881Z,99993.88
2023-04-06T14:36:41.553Z,99983.53
2023-04-06T14:39:09.387Z,99990.34
2023-04-06T14:41:36.235Z,99981.81
2023-04-06T14:44:04.227Z,99983.09
2023-04-06T14:46:31.051Z,99983.19
2023-04-06T14:48:59.013Z,99977.66
2023-04-06T14:51:28.171Z,99981.13
2023-04-06T14:53:56.304Z,99979.53
2023-04-06T14:56:24.724Z,99978.00
2023-04-06T14:58:52.681Z,99977.09
2023-04-06T15:01:21.399Z,99968.28
2023-04-06T15:03:49.016Z,99974.34
2023-04-06T15:06:17.063Z,99970.88
2023-04-06T15:08:45.005Z,99973.50
2023-04-06T15:11:13.060Z,99965.19
2023-04-06T15:13:41.237Z,99960.75
2023-04-06T15:16:08.514Z,99964.88
2023-04-06T15:18:36.694Z,99968.91
2023-04-06T15:21:03.603Z,99960.13
2023-04-06T15:23:31.053Z,99960.19
2023-04-06T15:25:58.786Z,99962.66
2023-04-06T15:28:25.715Z,99963.88
2023-04-06T15:30:52.751Z,99973.00
2023-04-06T15:33:22.038Z,99958.47
2023-04-06T15:35:49.191Z,99961.91
2023-04-06T15:38:16.514Z,99958.31
2023-04-06T15:40:45.669Z,99954.91
2023-04-06T15:43:13.912Z,99958.22
2023-04-06T15:45:41.731Z,99955.38
2023-04-06T15:48:09.366Z,99959.19
2023-04-06T15:50:36.592Z,99948.38
2023-04-06T15:53:03.795Z,99952.59
2023-04-06T15:55:30.501Z,99953.38
2023-04-06T15:57:57.746Z,99951.06
2023-04-06T16:00:25.394Z,99952.09
2023-04-06T16:02:52.842Z,99949.13
2023-04-06T16:05:19.794Z,99958.91
2023-04-06T16:07:47.079Z,99960.75
2023-04-06T16:10:13.721Z,99952.09
2023-04-06T16:12:42.796Z,99957.78
2023-04-06T16:15:09.947Z,99960.91
2023-04-06T16:17:36.933Z,99957.59
2023-04-06T16:20:03.945Z,99953.56
2023-04-06T16:22:30.598Z,99960.72
2023-04-06T16:24:57.992Z,99949.16
2023-04-06T16:27:24.595Z,99955.72
2023-04-06T16:29:51.994Z,99954.41
2023-04-06T16:32:18.763Z,99952.69
2023-04-06T16:34:47.027Z,99956.56
2023-04-06T16:37:13.897Z,99946.88
2023-04-06T16:39:41.208Z,99952.25
2023-04-06T16:42:07.824Z,99945.34
2023-04-06T16:44:35.174Z,99950.50
2023-04-06T16:47:04.330Z,99948.53
2023-04-06T16:49:30.978Z,99942.63
2023-04-06T16:52:02.148Z,99945.16
2023-04-06T16:54:28.725Z,99955.78
2023-04-06T16:56:56.651Z,99948.84
2023-04-06T16:59:23.253Z,99941.97
2023-04-06T17:01:50.753Z,99941.78
2023-04-06T17:04:17.593Z,99951.84
2023-04-06T17:06:45.477Z,99942.44
2023-04-06T17:09:12.189Z,99944.94
2023-04-06T17:11:46.646Z,99946.97
2023-04-06T17:14:14.337Z,99944.31
2023-04-06T17:16:41.748Z,99941.56
2023-04-06T17:19:08.453Z,99937.59
2023-04-06T17:21:35.814Z,99941.50
2023-04-06T17:24:02.380Z,99938.38
2023-04-06T17:26:29.612Z,99951.13
2023-04-06T17:28:56.218Z,99952.38
2023-04-06T17:31:23.152Z,99955.19
2023-04-06T17:33:50.325Z,99966.66
2023-04-06T17:36:17.805Z,99965.06
2023-04-06T17:38:46.274Z,99970.03
2023-04-06T17:41:14.379Z,99965.97
2023-04-06T17:43:41.203Z,99973.22
2023-04-06T17:46:08.667Z,99973.34
2023-04-06T17:48:35.467Z,99975.25
2023-04-06T17:51:03.225Z,99983.47
2023-04-06T17:53:34.400Z,99988.13
2023-04-06T17:56:05.259Z,99984.81
2023-04-06T17:58:32.009Z,99986.66
2023-04-06T18:00:58.916Z,99985.81
2023-04-06T18:03:26.408Z,99990.53
2023-04-06T18:05:53.063Z,99990.03
2023-04-06T18:08:20.383Z,99991.97
2023-04-06T18:10:48.349Z,99994.72
2023-04-06T18:13:15.966Z,100004.78
2023-04-06T18:15:42.638Z,99994.56
2023-04-06T18:18:09.953Z,100002.06
2023-04-06T18:20:40.927Z,100000.44
2023-04-06T18:23:08.205Z,100001.53
2023-04-06T18:25:38.818Z,100002.72
2023-04-06T18:28:07.517Z,100003.88
2023-04-06T18:30:34.212Z,100014.88
2023-04-06T18:33:01.103Z,100009.75
2023-04-06T18:35:27.712Z,100014.44
2023-04-06T18:37:54.672Z,100014.78
2023-04-06T18:40:50.482Z,100015.88
2023-04-06T18:43:18.093Z,100021.34
2023-04-06T18:45:44.809Z,100015.25
2023-04-06T18:48:12.085Z,100019.00
2023-04-06T18:50:38.704Z,100019.13
2023-04-06T18:53:05.758Z,100023.09
2023-04-06T18:55:33.387Z,100018.81
2023-04-06T18:58:00.856Z,100029.56
2023-04-06T19:00:27.542Z,100026.25
2023-04-06T19:02:54.915Z,100028.19
2023-04-06T19:05:22.317Z,100025.72
2023-04-06T19:07:52.880Z,100032.75
2023-04-06T19:10:19.816Z,100037.34
2023-04-06T19:12:47.920Z,100034.00
2023-04-06T19:15:14.928Z,100031.53
2023-04-06T19:17:42.465Z,100028.19
2023-04-06T19:20:09.610Z,100034.31
2023-04-06T19:22:37.399Z,100033.59
2023-04-06T19:25:08.367Z,100033.00
2023-04-06T19:27:35.351Z,100032.34
2023-04-06T19:30:02.053Z,100032.22
2023-04-06T19:32:30.404Z,100038.53
2023-04-06T19:34:59.528Z,100046.81
2023-04-06T19:37:26.786Z,100037.28
2023-04-06T19:39:53.426Z,100037.41
2023-04-06T19:42:22.037Z,100046.25
2023-04-06T19:44:49.126Z,100045.56
2023-04-06T19:47:16.636Z,100047.41
2023-04-06T19:49:43.668Z,100052.03
2023-04-06T19:52:11.330Z,100047.78
2023-04-06T19:54:41.347Z,100049.63
2023-04-06T19:57:08.715Z,100051.53
2023-04-06T19:59:35.523Z,100039.09
2023-04-06T20:02:02.945Z,100048.00
2023-04-06T20:04:29.868Z,100048.34
2023-04-06T20:06:56.868Z,100039.66
2023-04-06T20:09:24.380Z,100048.75
2023-04-06T20:11:53.952Z,100049.88
2023-04-06T20:14:22.244Z,100038.53
2023-04-06T20:16:50.977Z,100037.72
2023-04-06T20:19:17.979Z,100050.13
2023-04-06T20:21:45.571Z,100045.88
2023-04-06T20:24:12.316Z,100050.97
2023-04-06T20:26:39.609Z,100038.75
2023-04-06T20:29:06.249Z,100046.00
